Time;durP1;ratioP1;P1;durP2;ratioP2;P2;SDS_P1;SDS_P2;PMS_P1;PMS_P2;Temp;Humidity;BMP_temperature;BMP_pressure;BME280_temperature;BME280_humidity;BME280_pressure;Samples;Min_cycle;Max_cycle;Signal;HPM_P1;HPM_P2
2021/11/20 00:02:15;;;;;;;10.38;3.20;;;15.60;73.20;;;;;;4827130;29;20449;-73
2021/11/20 00:04:42;;;;;;;8.60;2.90;;;15.60;73.30;;;;;;4826897;29;20050;-73
2021/11/20 00:07:09;;;;;;;7.60;2.88;;;15.60;73.30;;;;;;4826822;29;20050;-73
2021/11/20 00:09:35;;;;;;;9.27;3.08;;;15.60;73.30;;;;;;4826881;29;20049;-73
2021/11/20 00:12:05;;;;;;;6.70;2.97;;;15.60;73.50;;;;;;4826913;29;20133;-73
2021/11/20 00:14:32;;;;;;;8.32;3.10;;;15.60;73.40;;;;;;4826782;29;20046;-73
2021/11/20 00:17:01;;;;;;;9.85;3.17;;;15.60;73.30;;;;;;4826868;29;20054;-72
2021/11/20 00:19:28;;;;;;;8.50;3.08;;;15.60;73.40;;;;;;4826702;29;20184;-73
2021/11/20 00:22:08;;;;;;;9.07;3.03;;;15.60;73.60;;;;;;4826559;29;20050;-74
2021/11/20 00:24:47;;;;;;;9.85;3.20;;;15.60;73.50;;;;;;4826397;29;20050;-73
2021/11/20 00:27:17;;;;;;;8.38;3.10;;;15.60;73.60;;;;;;4807747;29;20193;-72
2021/11/20 00:29:46;;;;;;;9.82;3.20;;;15.60;73.60;;;;;;4808105;29;20069;-73
2021/11/20 00:32:17;;;;;;;10.45;3.63;;;15.60;73.70;;;;;;4808005;29;20059;-74
2021/11/20 00:34:45;;;;;;;9.75;3.10;;;15.60;73.50;;;;;;4808299;29;20039;-73
2021/11/20 00:37:11;;;;;;;9.82;2.92;;;15.60;73.60;;;;;;4807838;29;20371;-74
2021/11/20 00:39:38;;;;;;;7.25;3.20;;;15.60;73.60;;;;;;4808152;29;20055;-73
2021/11/20 00:42:07;;;;;;;8.80;2.90;;;15.60;73.70;;;;;;4808137;29;20127;-72
2021/11/20 00:44:33;;;;;;;7.22;3.20;;;15.60;73.70;;;;;;4808003;29;20112;-73
2021/11/20 00:46:59;;;;;;;11.57;3.47;;;15.50;73.80;;;;;;4808622;29;20050;-73
2021/11/20 00:49:25;;;;;;;6.60;3.42;;;15.50;73.80;;;;;;4808376;29;20367;-72
2021/11/20 00:51:52;;;;;;;8.40;3.80;;;15.50;73.80;;;;;;4808204;29;20057;-74
2021/11/20 00:54:18;;;;;;;9.32;3.58;;;15.50;73.80;;;;;;4808245;29;20046;-73
2021/11/20 00:56:45;;;;;;;6.97;3.33;;;15.50;73.80;;;;;;4823700;29;20130;-73
2021/11/20 00:59:11;;;;;;;8.13;3.65;;;15.50;73.90;;;;;;4826168;29;20050;-73
2021/11/20 01:01:50;;;;;;;7.15;3.22;;;15.50;73.90;;;;;;4826057;29;20511;-73
2021/11/20 01:04:16;;;;;;;8.63;3.25;;;15.50;73.60;;;;;;4810103;29;20058;-73
2021/11/20 01:06:44;;;;;;;9.32;3.45;;;15.50;73.80;;;;;;4795185;29;20069;-73
2021/11/20 01:09:13;;;;;;;8.65;3.78;;;15.50;73.80;;;;;;4826048;29;20362;-73
2021/11/20 01:11:56;;;;;;;6.68;3.03;;;15.40;73.80;;;;;;4826566;29;20054;-73
2021/11/20 01:14:25;;;;;;;10.60;4.13;;;15.50;73.70;;;;;;4825978;29;20078;-73
2021/11/20 01:16:52;;;;;;;8.63;3.33;;;15.50;73.70;;;;;;4826204;29;20050;-73
2021/11/20 01:19:18;;;;;;;6.82;3.75;;;15.50;73.90;;;;;;4826075;29;20513;-73
2021/11/20 01:21:45;;;;;;;9.23;3.25;;;15.50;74.00;;;;;;4825877;29;20184;-72
2021/11/20 01:24:11;;;;;;;11.32;3.95;;;15.50;73.90;;;;;;4825865;29;20038;-73
2021/11/20 01:26:37;;;;;;;7.68;3.13;;;15.60;73.90;;;;;;4825565;29;20070;-73
2021/11/20 01:29:05;;;;;;;8.73;3.03;;;15.60;73.70;;;;;;4826200;29;20395;-73
2021/11/20 01:31:32;;;;;;;8.57;3.75;;;15.70;74.30;;;;;;4825933;29;20057;-73
2021/11/20 01:33:58;;;;;;;6.93;2.72;;;15.80;73.60;;;;;;4825865;29;20057;-74
2021/11/20 01:36:27;;;;;;;5.20;2.75;;;15.80;73.50;;;;;;4825476;29;20054;-72
2021/11/20 01:38:56;;;;;;;10.00;3.05;;;15.90;73.40;;;;;;4825481;29;20060;-73
2021/11/20 01:41:25;;;;;;;8.07;2.55;;;15.90;73.20;;;;;;4825663;29;20421;-74
2021/11/20 01:43:54;;;;;;;6.68;3.13;;;15.90;73.10;;;;;;4825719;29;20081;-74
2021/11/20 01:46:25;;;;;;;9.35;3.08;;;15.90;73.00;;;;;;4821640;29;20085;-74
2021/11/20 01:49:12;;;;;;;6.88;2.40;;;16.00;73.00;;;;;;4817442;29;20054;-74
2021/11/20 01:51:45;;;;;;;7.00;2.20;;;16.00;72.90;;;;;;4811124;29;20129;-75
2021/11/20 01:54:25;;;;;;;7.20;2.08;;;16.10;73.00;;;;;;4810732;29;20043;-75
2021/11/20 01:57:16;;;;;;;6.18;2.42;;;16.00;72.80;;;;;;4828370;29;20050;-74
2021/11/20 02:00:04;;;;;;;6.30;2.55;;;16.10;72.80;;;;;;4828819;29;20058;-74
2021/11/20 02:03:08;;;;;;;7.35;2.35;;;16.10;72.80;;;;;;4828632;29;20129;-74
2021/11/20 02:05:42;;;;;;;;;;;16.10;72.80;;;;;;4808946;29;20127;-75
2021/11/20 02:08:17;;;;;;;4.70;2.08;;;16.10;72.50;;;;;;4828825;29;19925;-73
2021/11/20 02:11:07;;;;;;;6.70;2.33;;;16.10;72.70;;;;;;4828237;29;20055;-73
2021/11/20 02:13:35;;;;;;;4.88;1.67;;;16.10;72.80;;;;;;4828049;29;20057;-72
2021/11/20 02:16:15;;;;;;;5.15;2.30;;;16.10;72.70;;;;;;4828127;29;20478;-73
2021/11/20 02:18:44;;;;;;;4.95;2.10;;;16.10;72.50;;;;;;4813302;29;20062;-74
2021/11/20 02:21:16;;;;;;;5.10;2.22;;;16.10;72.70;;;;;;4828520;29;20054;-73
2021/11/20 02:23:42;;;;;;;6.50;1.85;;;16.10;72.70;;;;;;4828948;29;20050;-73
2021/11/20 02:26:07;;;;;;;5.07;2.13;;;16.10;73.30;;;;;;4828318;29;20440;-74
2021/11/20 02:28:36;;;;;;;7.32;2.20;;;16.10;72.60;;;;;;4812340;29;20116;-73
2021/11/20 02:31:04;;;;;;;5.15;2.22;;;16.10;72.50;;;;;;4812569;29;20058;-73
2021/11/20 02:33:37;;;;;;;6.43;1.98;;;16.10;72.50;;;;;;4827485;29;20058;-73
2021/11/20 02:36:08;;;;;;;;;;;16.20;72.50;;;;;;4828933;29;20050;-73
2021/11/20 02:38:47;;;;;;;4.90;1.90;;;16.10;72.20;;;;;;4827585;29;20027;-73
2021/11/20 02:41:16;;;;;;;3.53;1.60;;;16.10;72.40;;;;;;4828257;29;20069;-74
2021/11/20 02:43:45;;;;;;;6.18;1.90;;;16.10;72.40;;;;;;4828168;29;20050;-73
2021/11/20 02:46:16;;;;;;;4.82;1.90;;;16.10;72.30;;;;;;4827849;29;20061;-73
2021/11/20 02:48:42;;;;;;;6.78;2.20;;;16.20;72.20;;;;;;4827977;29;20459;-75
2021/11/20 02:51:24;;;;;;;4.50;1.80;;;16.20;72.20;;;;;;4828050;29;20046;-74
2021/11/20 02:53:56;;;;;;;5.35;2.33;;;16.20;72.10;;;;;;4828315;29;20058;-74
2021/11/20 02:56:25;;;;;;;6.85;2.45;;;16.20;72.20;;;;;;4827875;29;20054;-74
2021/11/20 02:58:52;;;;;;;7.60;2.30;;;16.20;72.10;;;;;;4827791;29;20075;-75
2021/11/20 03:01:21;;;;;;;3.85;1.75;;;16.20;72.20;;;;;;4827140;29;20142;-74
2021/11/20 03:03:47;;;;;;;5.13;1.90;;;16.20;72.20;;;;;;4827989;29;20450;-75
2021/11/20 03:06:13;;;;;;;5.85;1.83;;;16.20;72.20;;;;;;4827601;29;20050;-74
2021/11/20 03:08:39;;;;;;;6.05;2.20;;;16.20;72.20;;;;;;4828093;29;20198;-73
2021/11/20 03:11:05;;;;;;;5.00;1.88;;;16.20;72.20;;;;;;4827859;29;20043;-74
2021/11/20 03:13:32;;;;;;;7.80;2.00;;;16.20;72.20;;;;;;4828029;29;20046;-74
2021/11/20 03:15:58;;;;;;;4.72;2.05;;;16.20;72.20;;;;;;4827533;29;20112;-73
2021/11/20 03:18:23;;;;;;;2.72;1.95;;;16.20;72.00;;;;;;4827389;29;20058;-74
2021/11/20 03:20:50;;;;;;;2.65;1.58;;;16.20;71.90;;;;;;4827466;29;20054;-74
2021/11/20 03:23:27;;;;;;;3.58;1.60;;;16.20;71.90;;;;;;4811515;29;20129;-74
2021/11/20 03:25:52;;;;;;;4.80;2.00;;;16.30;72.00;;;;;;4827516;29;20058;-73
2021/11/20 03:28:19;;;;;;;3.25;1.70;;;16.30;71.90;;;;;;4827755;29;20062;-74
2021/11/20 03:30:45;;;;;;;4.93;2.05;;;16.30;71.90;;;;;;4827374;29;20050;-74
2021/11/20 03:33:11;;;;;;;5.35;1.50;;;16.30;71.90;;;;;;4826434;29;20137;-74
2021/11/20 03:35:37;;;;;;;3.88;1.48;;;16.30;71.80;;;;;;4827160;29;20078;-73
2021/11/20 03:38:05;;;;;;;5.47;1.75;;;16.30;71.70;;;;;;4827361;29;20069;-74
2021/11/20 03:40:31;;;;;;;6.32;2.17;;;16.30;71.80;;;;;;4827514;29;20141;-73
2021/11/20 03:42:56;;;;;;;5.13;1.90;;;16.30;71.70;;;;;;4811271;29;20150;-74
2021/11/20 03:45:25;;;;;;;4.05;2.05;;;16.30;71.70;;;;;;4827830;29;20054;-75
2021/11/20 03:47:51;;;;;;;5.50;1.60;;;16.30;71.60;;;;;;4827018;29;20088;-74
2021/11/20 03:50:17;;;;;;;7.28;2.33;;;16.30;71.60;;;;;;4811752;29;20055;-73
2021/11/20 03:52:45;;;;;;;5.10;2.10;;;16.30;71.60;;;;;;4827216;29;20348;-74
2021/11/20 03:55:16;;;;;;;4.30;1.80;;;16.30;71.60;;;;;;4827177;29;20046;-75
2021/11/20 03:57:43;;;;;;;6.75;2.20;;;16.30;71.50;;;;;;4826422;29;20543;-74
2021/11/20 04:00:12;;;;;;;4.22;2.25;;;16.30;71.50;;;;;;4826316;29;20051;-74
2021/11/20 04:02:38;;;;;;;3.25;1.95;;;16.30;71.40;;;;;;4825129;29;20053;-74
2021/11/20 04:05:06;;;;;;;6.18;1.92;;;16.30;71.40;;;;;;4810428;29;20518;-74
2021/11/20 04:07:32;;;;;;;3.90;1.90;;;16.30;71.30;;;;;;4826431;29;20050;-74
2021/11/20 04:09:57;;;;;;;5.65;2.28;;;16.30;71.30;;;;;;4826991;29;20115;-73
2021/11/20 04:12:23;;;;;;;4.13;1.80;;;16.30;71.20;;;;;;4826078;29;20062;-74
2021/11/20 04:14:49;;;;;;;4.53;1.65;;;16.30;71.20;;;;;;4826591;29;20058;-74
2021/11/20 04:17:14;;;;;;;4.63;1.65;;;16.30;71.30;;;;;;4827071;29;20046;-74
2021/11/20 04:19:40;;;;;;;4.55;2.05;;;16.30;71.40;;;;;;4826921;29;20058;-74
2021/11/20 04:22:06;;;;;;;6.63;2.00;;;16.30;71.40;;;;;;4826634;29;20046;-73
2021/11/20 04:24:33;;;;;;;6.45;2.08;;;16.20;71.40;;;;;;4826427;29;20054;-73
2021/11/20 04:26:59;;;;;;;4.85;2.20;;;16.20;71.40;;;;;;4826063;29;20433;-74
2021/11/20 04:29:24;;;;;;;5.55;2.00;;;16.20;71.40;;;;;;4810351;29;20050;-74
2021/11/20 04:31:50;;;;;;;4.47;1.98;;;16.20;71.50;;;;;;4822140;29;20051;-74
2021/11/20 04:34:17;;;;;;;4.68;1.77;;;16.20;71.50;;;;;;4808393;29;20043;-73
2021/11/20 04:36:43;;;;;;;6.07;2.10;;;16.20;71.50;;;;;;4808207;29;20393;-74
2021/11/20 04:39:10;;;;;;;2.47;1.67;;;16.20;71.50;;;;;;4808465;29;20059;-74
2021/11/20 04:41:36;;;;;;;3.67;1.67;;;16.20;71.50;;;;;;4807835;29;20097;-73
2021/11/20 04:44:01;;;;;;;3.53;1.50;;;16.20;71.50;;;;;;4808285;29;20082;-73
2021/11/20 04:46:27;;;;;;;3.55;1.70;;;16.20;71.60;;;;;;4792710;29;20396;-74
2021/11/20 04:48:53;;;;;;;4.13;2.08;;;16.20;71.60;;;;;;4791916;29;20055;-74
2021/11/20 04:51:20;;;;;;;4.90;1.67;;;16.20;71.60;;;;;;4808320;29;20047;-74
2021/11/20 04:53:47;;;;;;;4.70;2.00;;;16.20;71.60;;;;;;4808275;29;20383;-74
2021/11/20 04:56:16;;;;;;;3.80;1.90;;;16.20;71.60;;;;;;4808582;29;20360;-73
2021/11/20 04:58:43;;;;;;;4.57;1.67;;;16.20;71.60;;;;;;4808273;29;20089;-74
2021/11/20 05:01:10;;;;;;;2.90;1.48;;;16.20;71.60;;;;;;4819648;29;20058;-73
2021/11/20 05:03:36;;;;;;;7.03;2.25;;;16.20;71.50;;;;;;4809984;29;20137;-71
2021/11/20 05:06:02;;;;;;;7.15;2.63;;;16.20;71.20;;;;;;4826161;29;20050;-72
2021/11/20 05:08:28;;;;;;;13.77;3.65;;;16.20;70.80;;;;;;4826080;29;20054;-71
2021/11/20 05:10:55;;;;;;;11.95;3.88;;;16.30;70.80;;;;;;4826791;29;20077;-71
2021/11/20 05:13:24;;;;;;;11.55;3.00;;;16.20;71.30;;;;;;4825746;29;20344;-71
2021/11/20 05:15:52;;;;;;;12.02;3.22;;;16.20;71.50;;;;;;4825888;29;20406;-71
2021/11/20 05:18:18;;;;;;;11.45;2.40;;;16.20;71.80;;;;;;4826126;29;20061;-73
2021/11/20 05:20:45;;;;;;;9.02;2.10;;;16.40;71.70;;;;;;4826083;29;20211;-72
2021/11/20 05:23:11;;;;;;;6.40;2.25;;;16.70;71.50;;;;;;4827018;29;20061;-70
2021/11/20 05:25:37;;;;;;;10.85;2.00;;;16.90;71.20;;;;;;4829185;29;20090;-72
2021/11/20 05:28:03;;;;;;;8.80;2.42;;;17.10;71.10;;;;;;4829826;29;20511;-73
2021/11/20 05:30:35;;;;;;;13.48;2.50;;;17.30;70.90;;;;;;4829024;29;20123;-73
2021/11/20 05:33:05;;;;;;;9.30;2.70;;;17.50;70.80;;;;;;4823370;29;20046;-73
2021/11/20 05:35:32;;;;;;;11.65;1.83;;;17.60;70.90;;;;;;4813005;29;20058;-74
2021/11/20 05:37:59;;;;;;;8.43;1.77;;;17.80;70.90;;;;;;4813068;29;20050;-75
2021/11/20 05:40:25;;;;;;;5.85;2.20;;;17.80;70.80;;;;;;4813471;29;20450;-74
2021/11/20 05:42:54;;;;;;;6.80;2.30;;;17.90;70.70;;;;;;4829470;29;20053;-73
2021/11/20 05:45:23;;;;;;;8.88;1.92;;;17.90;70.70;;;;;;4829005;29;20091;-72
2021/11/20 05:47:49;;;;;;;7.43;1.80;;;17.90;70.90;;;;;;4813285;29;20451;-72
2021/11/20 05:50:19;;;;;;;9.80;2.38;;;18.00;71.30;;;;;;4829165;29;20046;-75
2021/11/20 05:52:46;;;;;;;6.53;1.95;;;18.00;71.30;;;;;;4813269;29;20054;-73
2021/11/20 05:55:13;;;;;;;10.27;2.17;;;18.00;70.60;;;;;;4812848;29;20050;-72
2021/11/20 05:57:38;;;;;;;9.23;1.85;;;18.00;71.30;;;;;;4828865;29;20046;-72
2021/11/20 06:00:23;;;;;;;6.50;1.85;;;18.10;71.40;;;;;;4829222;29;20055;-72
2021/11/20 06:02:51;;;;;;;10.75;2.20;;;18.30;71.40;;;;;;4827807;29;20065;-73
2021/11/20 06:05:17;;;;;;;6.18;2.10;;;18.40;71.30;;;;;;4813372;29;20086;-73
2021/11/20 06:07:43;;;;;;;10.85;1.95;;;18.40;71.40;;;;;;4812418;29;20134;-73
2021/11/20 06:10:09;;;;;;;6.15;1.67;;;18.40;71.50;;;;;;4812555;29;20120;-74
2021/11/20 06:12:35;;;;;;;8.15;2.50;;;18.40;71.60;;;;;;4828335;29;20070;-76
2021/11/20 06:15:01;;;;;;;7.25;1.85;;;18.40;71.70;;;;;;4812310;29;20389;-73
2021/11/20 06:17:26;;;;;;;9.63;1.95;;;18.40;72.10;;;;;;4828522;29;20050;-72
2021/11/20 06:19:52;;;;;;;4.90;1.90;;;18.50;71.50;;;;;;4828619;29;20054;-74
2021/11/20 06:22:20;;;;;;;9.10;1.98;;;18.60;71.20;;;;;;4828960;29;20141;-73
2021/11/20 06:24:46;;;;;;;11.90;2.47;;;18.50;71.20;;;;;;4827851;29;20050;-74
2021/11/20 06:27:12;;;;;;;7.63;2.15;;;18.50;71.10;;;;;;4828076;29;20470;-74
2021/11/20 06:29:38;;;;;;;9.60;1.77;;;18.50;71.10;;;;;;4828670;29;20069;-74
2021/11/20 06:32:04;;;;;;;9.50;2.58;;;18.60;71.10;;;;;;4828482;29;20447;-77
2021/11/20 06:34:30;;;;;;;9.43;2.40;;;18.60;70.90;;;;;;4827014;29;20162;-75
2021/11/20 06:36:55;;;;;;;7.05;2.20;;;18.50;70.80;;;;;;4828096;29;20090;-75
2021/11/20 06:39:21;;;;;;;9.18;1.80;;;18.60;70.80;;;;;;4827973;29;20137;-75
2021/11/20 06:41:48;;;;;;;6.78;1.88;;;18.50;70.90;;;;;;4812509;29;20054;-76
2021/11/20 06:44:14;;;;;;;6.45;1.73;;;18.50;70.90;;;;;;4812304;29;20094;-73
2021/11/20 06:46:40;;;;;;;7.25;1.50;;;18.50;71.10;;;;;;4827604;29;20086;-75
2021/11/20 06:49:06;;;;;;;8.13;1.98;;;18.50;71.10;;;;;;4828129;29;20050;-73
2021/11/20 06:51:31;;;;;;;6.03;1.70;;;18.50;71.20;;;;;;4828144;29;20046;-73
2021/11/20 06:53:57;;;;;;;12.15;2.17;;;18.50;71.20;;;;;;4828372;29;20050;-73
2021/11/20 06:56:31;;;;;;;4.35;1.58;;;18.50;71.20;;;;;;4828001;29;20462;-73
2021/11/20 06:59:09;;;;;;;10.27;2.25;;;18.50;71.10;;;;;;4828290;29;20058;-73
2021/11/20 07:01:36;;;;;;;7.25;1.60;;;18.50;71.20;;;;;;4827804;29;20054;-74
2021/11/20 07:04:06;;;;;;;4.18;1.77;;;18.50;71.20;;;;;;4811975;29;20458;-73
2021/11/20 07:06:39;;;;;;;5.85;1.83;;;18.50;71.20;;;;;;4811665;29;20065;-74
2021/11/20 07:09:05;;;;;;;5.07;1.60;;;18.50;70.80;;;;;;4811955;29;20054;-74
2021/11/20 07:11:31;;;;;;;6.03;1.75;;;18.50;71.00;;;;;;4811583;29;20046;-76
2021/11/20 07:13:57;;;;;;;6.75;1.77;;;18.50;71.30;;;;;;4827691;29;20089;-77
2021/11/20 07:16:26;;;;;;;7.88;1.90;;;18.50;71.30;;;;;;4811926;29;20086;-77
2021/11/20 07:18:53;;;;;;;10.55;2.10;;;18.50;71.10;;;;;;4828151;29;20405;-75
2021/11/20 07:21:24;;;;;;;13.00;2.33;;;18.50;71.00;;;;;;4811777;29;20053;-74
2021/11/20 07:23:51;;;;;;;8.40;2.78;;;18.50;71.00;;;;;;4811555;29;20058;-77
2021/11/20 07:26:19;;;;;;;14.63;2.88;;;18.50;70.90;;;;;;4810834;29;20073;-74
2021/11/20 07:28:46;;;;;;;13.75;2.92;;;18.50;70.90;;;;;;4804593;29;20155;-77
2021/11/20 07:31:12;;;;;;;13.90;2.47;;;18.50;71.10;;;;;;4809004;29;20047;-76
2021/11/20 07:33:40;;;;;;;10.70;2.30;;;18.60;71.10;;;;;;4793150;29;20035;-78
2021/11/20 07:36:08;;;;;;;13.73;2.13;;;18.50;70.80;;;;;;4809838;29;20107;-76
2021/11/20 07:38:39;;;;;;;10.88;2.60;;;18.50;71.00;;;;;;4809303;29;20094;-78
2021/11/20 07:41:06;;;;;;;9.60;2.25;;;18.60;71.10;;;;;;4793134;29;20047;-78
2021/11/20 07:43:32;;;;;;;9.02;1.95;;;18.50;70.90;;;;;;4794049;29;20536;-79
2021/11/20 07:45:57;;;;;;;13.88;2.08;;;18.50;71.00;;;;;;4778395;29;20055;-80
2021/11/20 07:48:26;;;;;;;15.95;2.58;;;18.60;71.00;;;;;;4793376;29;20062;-78
2021/11/20 07:50:53;;;;;;;9.13;2.40;;;18.60;71.20;;;;;;4792747;29;20058;-78
2021/11/20 07:53:19;;;;;;;9.48;2.22;;;18.60;70.90;;;;;;4792988;29;20050;-77
2021/11/20 07:55:46;;;;;;;9.57;2.75;;;18.60;70.80;;;;;;4808834;29;20054;-75
2021/11/20 07:58:13;;;;;;;9.13;2.33;;;18.60;70.30;;;;;;4793110;29;20090;-75
2021/11/20 08:00:39;;;;;;;9.15;2.10;;;18.50;70.20;;;;;;4793051;29;20383;-76
2021/11/20 08:03:07;;;;;;;10.38;2.50;;;18.50;70.20;;;;;;4805937;29;20062;-75
2021/11/20 08:05:33;;;;;;;7.55;1.92;;;18.50;69.90;;;;;;4827181;29;20042;-75
2021/11/20 08:07:58;;;;;;;15.43;2.03;;;18.50;70.10;;;;;;4810936;29;20542;-76
2021/11/20 08:10:27;;;;;;;13.20;2.03;;;18.50;70.00;;;;;;4810933;29;20054;-75
2021/11/20 08:12:53;;;;;;;14.63;2.22;;;18.50;69.90;;;;;;4827027;29;20050;-77
2021/11/20 08:15:19;;;;;;;12.88;2.50;;;18.50;70.10;;;;;;4810849;29;20046;-74
2021/11/20 08:17:45;;;;;;;10.50;1.58;;;18.50;70.10;;;;;;4810858;29;20054;-78
2021/11/20 08:20:13;;;;;;;9.98;1.67;;;18.50;70.30;;;;;;4810403;29;20443;-76
2021/11/20 08:22:40;;;;;;;8.82;1.98;;;18.50;70.30;;;;;;4810613;29;20069;-76
2021/11/20 08:25:08;;;;;;;5.70;2.08;;;18.40;70.10;;;;;;4810455;29;20058;-75
2021/11/20 08:27:33;;;;;;;6.50;1.50;;;18.40;69.80;;;;;;4816144;29;20216;-77
2021/11/20 08:29:59;;;;;;;8.18;2.33;;;18.40;69.90;;;;;;4792369;29;20126;-75
2021/11/20 08:32:26;;;;;;;7.25;1.77;;;18.40;69.80;;;;;;4792805;29;20127;-75
2021/11/20 08:34:52;;;;;;;7.07;3.55;;;18.40;70.10;;;;;;4808200;29;20062;-77
2021/11/20 08:37:18;;;;;;;3.72;3.20;;;17.70;65.20;;;;;;4792427;29;20058;-75
2021/11/20 08:39:44;;;;;;;6.90;2.22;;;16.80;68.40;;;;;;4805364;29;20073;-76
2021/11/20 08:42:10;;;;;;;5.97;1.90;;;16.70;72.00;;;;;;4771886;29;20501;-76
2021/11/20 08:44:35;;;;;;;5.10;1.70;;;17.00;72.80;;;;;;4807685;29;20065;-77
2021/11/20 08:47:03;;;;;;;5.60;1.30;;;17.30;72.40;;;;;;4808023;29;20078;-76
2021/11/20 08:49:29;;;;;;;5.45;2.45;;;17.60;72.20;;;;;;4807973;29;20412;-74
2021/11/20 08:51:55;;;;;;;5.72;1.90;;;17.80;71.50;;;;;;4807776;29;20046;-75
2021/11/20 08:54:22;;;;;;;6.03;1.77;;;17.90;71.00;;;;;;4807693;29;20128;-75
2021/11/20 08:56:49;;;;;;;10.35;1.92;;;18.00;70.60;;;;;;4794753;29;20138;-76
2021/11/20 08:59:20;;;;;;;7.10;1.83;;;18.10;70.40;;;;;;4807196;29;20050;-77
2021/11/20 09:01:57;;;;;;;5.75;1.55;;;18.20;70.30;;;;;;4800124;29;20446;-76
2021/11/20 09:04:35;;;;;;;4.22;1.40;;;18.20;70.00;;;;;;4807417;29;20078;-75
2021/11/20 09:07:21;;;;;;;10.70;2.50;;;18.30;70.10;;;;;;4802228;29;20047;-75
2021/11/20 09:10:15;;;;;;;7.45;1.20;;;18.40;69.60;;;;;;4791386;29;20474;-76
2021/11/20 09:12:57;;;;;;;7.47;1.48;;;18.40;69.70;;;;;;4799341;29;20074;-75
2021/11/20 09:15:32;;;;;;;8.00;1.33;;;18.40;69.60;;;;;;4807400;29;20063;-74
2021/11/20 09:17:59;;;;;;;5.95;1.98;;;18.40;69.40;;;;;;4807377;29;20090;-74
2021/11/20 09:20:27;;;;;;;5.00;1.90;;;18.40;69.40;;;;;;4807580;29;20055;-74
2021/11/20 09:22:55;;;;;;;5.97;2.13;;;18.40;68.80;;;;;;4792080;29;20422;-75
2021/11/20 09:25:23;;;;;;;6.80;1.98;;;18.50;68.70;;;;;;4809547;29;20061;-73
2021/11/20 09:27:50;;;;;;;9.27;2.25;;;18.50;68.50;;;;;;4825652;29;20058;-74
2021/11/20 09:30:24;;;;;;;8.02;2.17;;;18.50;68.30;;;;;;4826249;29;20427;-74
2021/11/20 09:32:50;;;;;;;9.68;1.95;;;18.50;68.20;;;;;;4825869;29;20126;-74
2021/11/20 09:35:16;;;;;;;3.92;1.42;;;18.50;68.20;;;;;;4810024;29;20471;-74
2021/11/20 09:37:42;;;;;;;2.50;1.50;;;18.50;68.10;;;;;;4809645;29;20133;-74
2021/11/20 09:40:10;;;;;;;1.75;0.82;;;18.50;68.00;;;;;;4824237;29;20069;-74
2021/11/20 09:42:39;;;;;;;5.38;4.35;;;18.50;67.90;;;;;;4823796;29;20417;-73
2021/11/20 09:45:17;;;;;;;6.60;2.67;;;17.90;64.70;;;;;;4824967;29;20071;-74
2021/11/20 09:47:46;;;;;;;6.78;1.73;;;18.10;68.30;;;;;;4825658;29;20069;-72
2021/11/20 09:50:35;;;;;;;4.05;1.70;;;18.10;68.60;;;;;;4825760;29;20054;-75
2021/11/20 09:53:02;;;;;;;4.10;1.77;;;18.30;68.70;;;;;;4822879;29;20073;-74
2021/11/20 09:55:33;;;;;;;7.55;3.05;;;18.30;68.60;;;;;;4825639;29;20082;-74
2021/11/20 09:58:22;;;;;;;5.13;1.80;;;17.70;68.00;;;;;;4809723;29;20127;-73
2021/11/20 10:01:27;;;;;;;6.65;1.90;;;17.90;69.80;;;;;;4825575;29;20055;-72
2021/11/20 10:04:02;;;;;;;5.60;1.30;;;18.00;69.60;;;;;;4825390;29;20108;-73
2021/11/20 10:06:42;;;;;;;5.85;1.60;;;18.20;69.50;;;;;;4825868;29;20134;-74
2021/11/20 10:09:19;;;;;;;6.72;2.17;;;18.30;69.50;;;;;;4826175;29;20483;-75
2021/11/20 10:11:53;;;;;;;4.05;1.27;;;18.40;69.30;;;;;;4828537;29;20054;-73
2021/11/20 10:14:20;;;;;;;;;;;18.50;69.20;;;;;;4828851;29;20511;-73
2021/11/20 10:16:57;;;;;;;4.70;1.77;;;18.50;69.20;;;;;;4828512;29;19925;-74
2021/11/20 10:19:27;;;;;;;4.22;1.52;;;18.50;69.20;;;;;;4828576;29;20054;-73
2021/11/20 10:22:11;;;;;;;5.20;1.27;;;18.50;69.10;;;;;;4812247;29;20118;-74
2021/11/20 10:24:42;;;;;;;4.00;1.55;;;18.50;69.20;;;;;;4828733;29;20460;-73
2021/11/20 10:27:29;;;;;;;3.30;1.48;;;18.50;69.30;;;;;;4812001;29;20356;-74
2021/11/20 10:29:55;;;;;;;8.23;1.83;;;18.50;69.40;;;;;;4828324;29;20072;-74
2021/11/20 10:32:33;;;;;;;6.32;1.60;;;18.40;69.50;;;;;;4828048;29;20050;-73
2021/11/20 10:35:22;;;;;;;6.20;1.52;;;18.40;69.80;;;;;;4828251;29;20119;-73
2021/11/20 10:38:11;;;;;;;17.73;1.67;;;18.40;69.80;;;;;;4827846;29;20069;-73
2021/11/20 10:41:06;;;;;;;4.50;1.23;;;18.40;70.00;;;;;;4828186;29;20110;-75
2021/11/20 10:43:43;;;;;;;3.92;1.95;;;18.40;70.60;;;;;;4810815;29;20081;-73
2021/11/20 10:46:32;;;;;;;5.53;1.83;;;18.30;70.00;;;;;;4828276;29;20058;-73
2021/11/20 10:49:09;;;;;;;9.10;2.08;;;18.30;70.20;;;;;;4828054;29;20459;-75
2021/11/20 10:51:44;;;;;;;6.22;2.28;;;18.30;70.20;;;;;;4827631;29;20085;-77
2021/11/20 10:55:06;;;;;;;8.93;1.88;;;18.30;69.70;;;;;;4827951;29;20083;-79
2021/11/20 10:57:57;;;;;;;7.22;1.70;;;18.30;69.50;;;;;;4782038;29;20066;-77
2021/11/20 11:00:28;;;;;;;10.25;2.25;;;18.20;70.00;;;;;;4827931;29;20343;-79
2021/11/20 11:03:21;;;;;;;7.00;1.40;;;18.30;70.00;;;;;;4827968;29;20115;-77
2021/11/20 11:06:22;;;;;;;10.18;2.28;;;18.30;70.10;;;;;;4828096;29;20062;-76
2021/11/20 11:08:59;;;;;;;5.68;1.63;;;18.30;70.20;;;;;;4827996;29;20077;-76
2021/11/20 11:11:39;;;;;;;14.50;1.75;;;18.30;70.20;;;;;;4811858;29;20055;-78
2021/11/20 11:14:12;;;;;;;7.97;1.63;;;18.30;70.30;;;;;;4811935;29;20046;-77
2021/11/20 11:16:37;;;;;;;5.43;1.23;;;18.30;70.40;;;;;;4827556;29;20130;-77
2021/11/20 11:19:30;;;;;;;5.95;1.60;;;18.40;70.40;;;;;;4827681;29;20441;-77
2021/11/20 11:22:02;;;;;;;7.20;1.98;;;18.40;70.50;;;;;;4827144;29;20162;-76
2021/11/20 11:24:33;;;;;;;5.82;1.67;;;18.40;70.50;;;;;;4827106;29;20465;-76
2021/11/20 11:27:16;;;;;;;5.85;1.40;;;18.40;70.50;;;;;;4827371;29;20379;-76
2021/11/20 11:30:00;;;;;;;8.00;1.50;;;18.40;70.50;;;;;;4827322;29;20119;-77
2021/11/20 11:32:29;;;;;;;13.15;1.73;;;18.40;70.80;;;;;;4827521;29;20054;-76
2021/11/20 11:35:07;;;;;;;12.93;2.03;;;18.40;70.80;;;;;;4826939;29;20103;-76
2021/11/20 11:37:51;;;;;;;7.50;1.80;;;18.40;70.90;;;;;;4827366;29;20050;-76
2021/11/20 11:40:20;;;;;;;;;;;18.40;71.00;;;;;;4827689;29;20047;-77
2021/11/20 11:42:55;;;;;;;6.22;1.30;;;18.30;69.30;;;;;;4827628;29;19924;-76
2021/11/20 11:45:40;;;;;;;11.63;3.33;;;17.80;69.20;;;;;;4826988;29;20152;-72
2021/11/20 11:48:30;;;;;;;21.45;3.47;;;17.90;72.00;;;;;;4826840;29;20055;-75
2021/11/20 11:51:18;;;;;;;24.35;4.75;;;17.90;70.80;;;;;;4827010;29;20055;-75
2021/11/20 11:54:13;;;;;;;8.98;3.42;;;17.70;70.30;;;;;;4826700;29;20050;-75
2021/11/20 11:56:43;;;;;;;13.60;3.00;;;17.80;70.60;;;;;;4811141;29;20400;-74
2021/11/20 11:59:36;;;;;;;12.15;2.97;;;17.90;70.60;;;;;;4824863;29;20518;-76
2021/11/20 12:02:16;;;;;;;11.38;2.63;;;18.00;70.50;;;;;;4808707;29;20077;-75
2021/11/20 12:04:52;;;;;;;12.60;2.97;;;18.10;70.30;;;;;;4809492;29;20367;-71
2021/11/20 12:07:47;;;;;;;12.45;2.90;;;18.10;70.20;;;;;;4824942;29;20378;-74
2021/11/20 12:10:22;;;;;;;9.27;2.70;;;18.10;70.20;;;;;;4816386;29;20058;-73
2021/11/20 12:13:04;;;;;;;14.15;2.45;;;18.10;69.90;;;;;;4810586;29;20118;-75
2021/11/20 12:15:41;;;;;;;17.83;3.03;;;18.20;70.00;;;;;;4826822;29;20478;-74
2021/11/20 12:18:25;;;;;;;12.43;2.55;;;18.20;69.90;;;;;;4826740;29;20057;-74
2021/11/20 12:20:58;;;;;;;12.80;2.45;;;18.30;69.80;;;;;;4826444;29;20115;-73
2021/11/20 12:23:54;;;;;;;13.85;3.28;;;18.30;70.00;;;;;;4809850;29;20054;-77
2021/11/20 12:26:33;;;;;;;8.40;2.42;;;18.30;69.70;;;;;;4822768;29;20082;-74
2021/11/20 12:29:07;;;;;;;14.82;2.92;;;18.30;69.50;;;;;;4826469;29;20046;-75
2021/11/20 12:31:56;;;;;;;12.55;2.80;;;18.20;69.60;;;;;;4826560;29;20062;-76
2021/11/20 12:34:33;;;;;;;14.07;2.42;;;18.20;69.60;;;;;;4817620;29;20127;-74
2021/11/20 12:37:23;;;;;;;10.50;2.85;;;18.20;69.70;;;;;;4826928;29;20081;-73
2021/11/20 12:40:20;;;;;;;10.45;3.00;;;18.20;70.00;;;;;;4826410;29;20227;-74
2021/11/20 12:43:00;;;;;;;12.23;2.70;;;18.20;70.40;;;;;;4826328;29;20054;-74
2021/11/20 12:45:53;;;;;;;9.68;2.28;;;18.20;69.90;;;;;;4826608;29;20086;-74
2021/11/20 12:48:51;;;;;;;15.40;3.20;;;18.20;70.10;;;;;;4826106;29;20133;-76
2021/11/20 12:51:46;;;;;;;10.98;2.70;;;18.00;70.20;;;;;;4826641;29;20054;-75
2021/11/20 12:54:40;;;;;;;10.73;2.42;;;18.00;69.90;;;;;;4798296;29;20145;-74
2021/11/20 12:57:17;;;;;;;12.05;2.10;;;18.00;69.50;;;;;;4810149;29;20050;-75
2021/11/20 12:59:55;;;;;;;11.77;2.92;;;18.00;69.80;;;;;;4826342;29;20069;-74
2021/11/20 13:02:33;;;;;;;7.97;2.15;;;18.00;69.20;;;;;;4826122;29;20111;-75
2021/11/20 13:05:12;;;;;;;4.78;2.10;;;18.00;69.40;;;;;;4809651;29;20058;-75
2021/11/20 13:07:49;;;;;;;8.93;1.90;;;17.90;69.30;;;;;;4826523;29;20046;-75
2021/11/20 13:10:40;;;;;;;8.70;2.50;;;17.90;69.50;;;;;;4826285;29;20094;-76